Portada
METAR-TAF:

METAR-TAF

Aeropuertos :

Lanzarote, España

Aeropuerto de Lanzarote

latitud: 28-57N, longitud: 013-36W, altitud: 14 m

Observación

El informe se hizo hace 41 minutos, a las 21:30 UTC
Viento 11 kt del norte-noroeste, variando entre oeste-noroeste y norte
Temperatura 21°C
Humedad 69%
Presión 1021 hPa
Visibilidad 10 km o más
Escasas nubes a una altura de 2500 ft

METAR: GCRR 162130Z 33011KT 300V360 9999 FEW025 21/15 Q1021 WS R03

Hora: 23:11 (22:11 UTC)

Pronóstico

El informe se hizo hace 2 horas y 11 minutos, a las 20:00 UTC
Pronóstico válido del 16 a las 21 UTC al 17 a las 21 UTC
Viento 9 kt del norte-noreste
Visibilidad 10 km o más
Escasas nubes a una altura de 3000 ft
Probabilidad 30% :
Temporalmente
del 17 a las 13 UTC al 17 a las 21 UTC
Viento 15 kt del norte con ráfagas de 25 kt

TAF: GCRR 162000Z 1621/1721 02009KT 9999 FEW030 TX27/1714Z TN17/1706Z PROB30 TEMPO 1713/1721 01015G25KT

Observaciones y pronósticos meteorológicos de más de 4000 aeropuertos (mensajes METAR y TAF).

Los puntos amarillos y rojos representan las estaciones disponibles.

Ponga el ratón en el punto deseado para ver el nombre de la estación.

Haga clic para ver las observaciones y los pronósticos meteorológicos.

Para cambiar el mapa : haga clic en los botones verdes con una cruz de color negro para hacer un zoom, en el botón verde con un guión para alejar o en las flechas verdes para mapas adyacentes.


METAR-TAF: